Terminal Aerodrome Forecast
Issued by NWS Memphis, TN

Home | Current Version | Previous Version | Text Only | Print | Product List | Glossary On
Versions: 1 2 3 4 5 6 7 8 9 10 11 12 13 14 15 16 17 18 19 20
000
FTUS44 KMEG 121200 AAA
TAFMKL
TAF AMD
KMKL 121218Z 1212/1312 00000KT P6SM SKC
      TEMPO 1212/1213 5SM BR
     FM121400 18004KT P6SM SKC
     FM130000 VRB02KT P6SM SKC
      TEMPO 1308/1312 3SM BR=

USA.gov is the U.S. government's official web portal to all federal, state and local government web resources and services.